sensor_id;sensor_type;location;lat;lon;timestamp;P1;durP1;ratioP1;P2;durP2;ratioP2
3625;SDS011;1827;50.534;8.316;2023-03-01T00:01:23;43.87;;;20.67;;
3625;SDS011;1827;50.534;8.316;2023-03-01T00:03:53;42.27;;;20.10;;
3625;SDS011;1827;50.534;8.316;2023-03-01T00:06:27;44.40;;;20.63;;
3625;SDS011;1827;50.534;8.316;2023-03-01T00:08:58;40.60;;;18.17;;
3625;SDS011;1827;50.534;8.316;2023-03-01T00:11:25;43.43;;;18.30;;
3625;SDS011;1827;50.534;8.316;2023-03-01T00:13:59;43.17;;;18.83;;
3625;SDS011;1827;50.534;8.316;2023-03-01T00:16:31;41.80;;;17.47;;
3625;SDS011;1827;50.534;8.316;2023-03-01T00:19:06;36.97;;;17.47;;
3625;SDS011;1827;50.534;8.316;2023-03-01T00:21:42;51.43;;;19.70;;
3625;SDS011;1827;50.534;8.316;2023-03-01T00:24:09;39.17;;;18.40;;
3625;SDS011;1827;50.534;8.316;2023-03-01T00:26:39;40.73;;;20.00;;
3625;SDS011;1827;50.534;8.316;2023-03-01T00:29:04;40.43;;;18.60;;
3625;SDS011;1827;50.534;8.316;2023-03-01T00:31:34;43.47;;;20.07;;
3625;SDS011;1827;50.534;8.316;2023-03-01T00:34:04;43.80;;;20.80;;
3625;SDS011;1827;50.534;8.316;2023-03-01T00:36:33;43.20;;;19.37;;
3625;SDS011;1827;50.534;8.316;2023-03-01T00:39:05;43.10;;;19.80;;
3625;SDS011;1827;50.534;8.316;2023-03-01T00:41:36;40.90;;;19.20;;
3625;SDS011;1827;50.534;8.316;2023-03-01T00:44:03;39.20;;;17.43;;
3625;SDS011;1827;50.534;8.316;2023-03-01T00:46:32;40.00;;;18.23;;
3625;SDS011;1827;50.534;8.316;2023-03-01T00:49:00;39.30;;;18.00;;
3625;SDS011;1827;50.534;8.316;2023-03-01T00:51:29;37.23;;;16.83;;
3625;SDS011;1827;50.534;8.316;2023-03-01T00:54:04;43.43;;;17.47;;
3625;SDS011;1827;50.534;8.316;2023-03-01T00:56:35;40.50;;;17.63;;
3625;SDS011;1827;50.534;8.316;2023-03-01T00:59:04;41.60;;;17.90;;
3625;SDS011;1827;50.534;8.316;2023-03-01T01:01:31;41.80;;;18.17;;
3625;SDS011;1827;50.534;8.316;2023-03-01T01:04:00;38.20;;;17.70;;
3625;SDS011;1827;50.534;8.316;2023-03-01T01:06:31;37.63;;;16.73;;
3625;SDS011;1827;50.534;8.316;2023-03-01T01:08:59;40.63;;;17.50;;
3625;SDS011;1827;50.534;8.316;2023-03-01T01:11:32;40.23;;;16.83;;
3625;SDS011;1827;50.534;8.316;2023-03-01T01:13:59;36.80;;;16.57;;
3625;SDS011;1827;50.534;8.316;2023-03-01T01:16:29;41.73;;;17.20;;
3625;SDS011;1827;50.534;8.316;2023-03-01T01:18:58;39.87;;;17.50;;
3625;SDS011;1827;50.534;8.316;2023-03-01T01:21:25;44.73;;;19.10;;
3625;SDS011;1827;50.534;8.316;2023-03-01T01:23:54;40.33;;;18.93;;
3625;SDS011;1827;50.534;8.316;2023-03-01T01:26:23;38.77;;;18.30;;
3625;SDS011;1827;50.534;8.316;2023-03-01T01:28:54;44.00;;;18.50;;
3625;SDS011;1827;50.534;8.316;2023-03-01T01:31:24;40.43;;;16.73;;
3625;SDS011;1827;50.534;8.316;2023-03-01T01:33:51;43.93;;;16.97;;
3625;SDS011;1827;50.534;8.316;2023-03-01T01:36:25;38.87;;;15.53;;
3625;SDS011;1827;50.534;8.316;2023-03-01T01:38:53;35.07;;;15.27;;
3625;SDS011;1827;50.534;8.316;2023-03-01T01:41:21;40.53;;;16.90;;
3625;SDS011;1827;50.534;8.316;2023-03-01T01:44:11;38.80;;;17.07;;
3625;SDS011;1827;50.534;8.316;2023-03-01T01:47:04;35.50;;;15.93;;
3625;SDS011;1827;50.534;8.316;2023-03-01T01:52:22;35.20;;;15.60;;
3625;SDS011;1827;50.534;8.316;2023-03-01T01:55:07;38.23;;;17.07;;
3625;SDS011;1827;50.534;8.316;2023-03-01T01:57:41;40.23;;;15.57;;
3625;SDS011;1827;50.534;8.316;2023-03-01T02:00:21;34.30;;;14.73;;
3625;SDS011;1827;50.534;8.316;2023-03-01T02:03:02;35.20;;;14.57;;
3625;SDS011;1827;50.534;8.316;2023-03-01T02:05:42;37.47;;;15.87;;
3625;SDS011;1827;50.534;8.316;2023-03-01T02:08:38;35.40;;;15.57;;
3625;SDS011;1827;50.534;8.316;2023-03-01T02:11:10;36.00;;;15.07;;
3625;SDS011;1827;50.534;8.316;2023-03-01T02:13:41;33.43;;;14.67;;
3625;SDS011;1827;50.534;8.316;2023-03-01T02:16:14;33.50;;;14.93;;
3625;SDS011;1827;50.534;8.316;2023-03-01T02:18:44;35.63;;;15.20;;
3625;SDS011;1827;50.534;8.316;2023-03-01T02:24:26;34.73;;;14.40;;
3625;SDS011;1827;50.534;8.316;2023-03-01T02:27:13;35.57;;;15.17;;
3625;SDS011;1827;50.534;8.316;2023-03-01T02:29:41;35.57;;;15.47;;
3625;SDS011;1827;50.534;8.316;2023-03-01T02:32:09;37.93;;;15.70;;
3625;SDS011;1827;50.534;8.316;2023-03-01T02:34:42;34.87;;;14.93;;
3625;SDS011;1827;50.534;8.316;2023-03-01T02:37:12;36.40;;;16.10;;
3625;SDS011;1827;50.534;8.316;2023-03-01T02:39:42;43.33;;;16.00;;
3625;SDS011;1827;50.534;8.316;2023-03-01T02:42:21;32.40;;;14.00;;
3625;SDS011;1827;50.534;8.316;2023-03-01T02:44:55;49.03;;;16.43;;
3625;SDS011;1827;50.534;8.316;2023-03-01T02:47:21;37.10;;;15.33;;
3625;SDS011;1827;50.534;8.316;2023-03-01T02:49:50;35.00;;;16.30;;
3625;SDS011;1827;50.534;8.316;2023-03-01T02:55:21;38.67;;;16.30;;
3625;SDS011;1827;50.534;8.316;2023-03-01T02:57:49;47.63;;;16.67;;
3625;SDS011;1827;50.534;8.316;2023-03-01T03:00:28;32.73;;;15.00;;
3625;SDS011;1827;50.534;8.316;2023-03-01T03:03:00;36.90;;;15.97;;
3625;SDS011;1827;50.534;8.316;2023-03-01T03:05:33;34.30;;;15.63;;
3625;SDS011;1827;50.534;8.316;2023-03-01T03:08:05;42.43;;;16.93;;
3625;SDS011;1827;50.534;8.316;2023-03-01T03:10:37;33.93;;;14.77;;
3625;SDS011;1827;50.534;8.316;2023-03-01T03:13:08;32.93;;;15.47;;
3625;SDS011;1827;50.534;8.316;2023-03-01T03:15:39;36.23;;;15.97;;
3625;SDS011;1827;50.534;8.316;2023-03-01T03:18:12;34.90;;;14.80;;
3625;SDS011;1827;50.534;8.316;2023-03-01T03:20:43;34.97;;;15.13;;
3625;SDS011;1827;50.534;8.316;2023-03-01T03:23:10;40.00;;;16.27;;
3625;SDS011;1827;50.534;8.316;2023-03-01T03:25:37;36.17;;;15.37;;
3625;SDS011;1827;50.534;8.316;2023-03-01T03:28:08;38.00;;;15.50;;
3625;SDS011;1827;50.534;8.316;2023-03-01T03:30:38;33.63;;;14.73;;
3625;SDS011;1827;50.534;8.316;2023-03-01T03:33:11;34.97;;;14.83;;
3625;SDS011;1827;50.534;8.316;2023-03-01T03:35:42;36.03;;;15.67;;
3625;SDS011;1827;50.534;8.316;2023-03-01T03:38:15;33.40;;;14.90;;
3625;SDS011;1827;50.534;8.316;2023-03-01T03:40:47;38.20;;;16.30;;
3625;SDS011;1827;50.534;8.316;2023-03-01T03:43:32;36.90;;;16.17;;
3625;SDS011;1827;50.534;8.316;2023-03-01T03:46:05;36.57;;;16.10;;
3625;SDS011;1827;50.534;8.316;2023-03-01T03:48:36;39.60;;;15.90;;
3625;SDS011;1827;50.534;8.316;2023-03-01T03:51:05;36.57;;;16.37;;
3625;SDS011;1827;50.534;8.316;2023-03-01T03:53:35;37.70;;;15.50;;
3625;SDS011;1827;50.534;8.316;2023-03-01T03:56:01;39.00;;;15.93;;
3625;SDS011;1827;50.534;8.316;2023-03-01T03:58:28;36.63;;;15.50;;
3625;SDS011;1827;50.534;8.316;2023-03-01T04:00:55;36.50;;;15.93;;
3625;SDS011;1827;50.534;8.316;2023-03-01T04:03:28;36.60;;;16.57;;
3625;SDS011;1827;50.534;8.316;2023-03-01T04:06:00;36.93;;;15.90;;
3625;SDS011;1827;50.534;8.316;2023-03-01T04:08:27;36.43;;;16.17;;
3625;SDS011;1827;50.534;8.316;2023-03-01T04:10:57;37.27;;;15.93;;
3625;SDS011;1827;50.534;8.316;2023-03-01T04:13:26;40.63;;;17.17;;
3625;SDS011;1827;50.534;8.316;2023-03-01T04:15:53;36.13;;;17.13;;
3625;SDS011;1827;50.534;8.316;2023-03-01T04:18:20;38.40;;;16.33;;
3625;SDS011;1827;50.534;8.316;2023-03-01T04:20:50;42.03;;;15.63;;
3625;SDS011;1827;50.534;8.316;2023-03-01T04:23:18;43.23;;;17.17;;
3625;SDS011;1827;50.534;8.316;2023-03-01T04:28:23;36.10;;;16.20;;
3625;SDS011;1827;50.534;8.316;2023-03-01T04:31:09;39.90;;;16.47;;
3625;SDS011;1827;50.534;8.316;2023-03-01T04:33:43;40.33;;;16.33;;
3625;SDS011;1827;50.534;8.316;2023-03-01T04:36:16;36.03;;;17.00;;
3625;SDS011;1827;50.534;8.316;2023-03-01T04:38:43;40.90;;;17.47;;
3625;SDS011;1827;50.534;8.316;2023-03-01T04:41:15;45.20;;;17.67;;
3625;SDS011;1827;50.534;8.316;2023-03-01T04:43:48;36.63;;;16.93;;
3625;SDS011;1827;50.534;8.316;2023-03-01T04:46:18;43.60;;;18.50;;
3625;SDS011;1827;50.534;8.316;2023-03-01T04:48:53;43.60;;;17.60;;
3625;SDS011;1827;50.534;8.316;2023-03-01T04:51:19;43.10;;;17.53;;
3625;SDS011;1827;50.534;8.316;2023-03-01T04:53:46;39.87;;;17.00;;
3625;SDS011;1827;50.534;8.316;2023-03-01T04:56:13;40.93;;;17.67;;
3625;SDS011;1827;50.534;8.316;2023-03-01T04:58:41;42.67;;;18.37;;
3625;SDS011;1827;50.534;8.316;2023-03-01T05:01:10;40.03;;;17.00;;
3625;SDS011;1827;50.534;8.316;2023-03-01T05:03:46;42.03;;;19.20;;
3625;SDS011;1827;50.534;8.316;2023-03-01T05:06:14;35.63;;;16.60;;
3625;SDS011;1827;50.534;8.316;2023-03-01T05:08:45;40.80;;;17.90;;
3625;SDS011;1827;50.534;8.316;2023-03-01T05:11:11;38.57;;;16.70;;
3625;SDS011;1827;50.534;8.316;2023-03-01T05:13:38;36.37;;;16.20;;
3625;SDS011;1827;50.534;8.316;2023-03-01T05:16:09;42.03;;;17.60;;
3625;SDS011;1827;50.534;8.316;2023-03-01T05:18:41;37.40;;;16.60;;
3625;SDS011;1827;50.534;8.316;2023-03-01T05:21:07;35.93;;;16.73;;
3625;SDS011;1827;50.534;8.316;2023-03-01T05:23:36;39.57;;;16.43;;
3625;SDS011;1827;50.534;8.316;2023-03-01T05:26:04;40.17;;;16.50;;
3625;SDS011;1827;50.534;8.316;2023-03-01T05:28:33;38.87;;;16.27;;
3625;SDS011;1827;50.534;8.316;2023-03-01T05:31:03;47.50;;;17.97;;
3625;SDS011;1827;50.534;8.316;2023-03-01T05:33:39;39.00;;;17.07;;
3625;SDS011;1827;50.534;8.316;2023-03-01T05:36:09;52.23;;;18.67;;
3625;SDS011;1827;50.534;8.316;2023-03-01T05:38:38;48.73;;;17.27;;
3625;SDS011;1827;50.534;8.316;2023-03-01T05:41:04;41.93;;;18.90;;
3625;SDS011;1827;50.534;8.316;2023-03-01T05:43:31;42.97;;;18.83;;
3625;SDS011;1827;50.534;8.316;2023-03-01T05:46:00;49.67;;;20.33;;
3625;SDS011;1827;50.534;8.316;2023-03-01T05:48:28;38.00;;;17.27;;
3625;SDS011;1827;50.534;8.316;2023-03-01T05:50:54;43.73;;;18.80;;
3625;SDS011;1827;50.534;8.316;2023-03-01T05:53:21;52.90;;;19.70;;
3625;SDS011;1827;50.534;8.316;2023-03-01T05:55:49;41.37;;;18.10;;
3625;SDS011;1827;50.534;8.316;2023-03-01T05:58:18;42.10;;;18.10;;
3625;SDS011;1827;50.534;8.316;2023-03-01T06:00:49;44.73;;;18.27;;
3625;SDS011;1827;50.534;8.316;2023-03-01T06:03:15;46.47;;;21.27;;
3625;SDS011;1827;50.534;8.316;2023-03-01T06:05:42;41.40;;;19.30;;
3625;SDS011;1827;50.534;8.316;2023-03-01T06:08:10;56.33;;;22.50;;
3625;SDS011;1827;50.534;8.316;2023-03-01T06:10:38;55.80;;;23.30;;
3625;SDS011;1827;50.534;8.316;2023-03-01T06:13:08;53.93;;;22.97;;
3625;SDS011;1827;50.534;8.316;2023-03-01T06:15:35;49.03;;;22.07;;
3625;SDS011;1827;50.534;8.316;2023-03-01T06:18:09;50.80;;;20.87;;
3625;SDS011;1827;50.534;8.316;2023-03-01T06:20:40;46.23;;;18.70;;
3625;SDS011;1827;50.534;8.316;2023-03-01T06:23:13;47.73;;;19.50;;
3625;SDS011;1827;50.534;8.316;2023-03-01T06:25:41;50.27;;;20.60;;
3625;SDS011;1827;50.534;8.316;2023-03-01T06:28:12;50.80;;;20.87;;
3625;SDS011;1827;50.534;8.316;2023-03-01T06:30:38;47.90;;;21.03;;
3625;SDS011;1827;50.534;8.316;2023-03-01T06:33:05;51.07;;;20.53;;
3625;SDS011;1827;50.534;8.316;2023-03-01T06:35:32;51.53;;;22.10;;
3625;SDS011;1827;50.534;8.316;2023-03-01T06:38:04;52.67;;;20.73;;
3625;SDS011;1827;50.534;8.316;2023-03-01T06:40:32;49.90;;;21.40;;
3625;SDS011;1827;50.534;8.316;2023-03-01T06:43:01;48.33;;;20.47;;
3625;SDS011;1827;50.534;8.316;2023-03-01T06:45:29;45.70;;;18.33;;
3625;SDS011;1827;50.534;8.316;2023-03-01T06:48:04;51.60;;;20.60;;
3625;SDS011;1827;50.534;8.316;2023-03-01T06:50:35;65.60;;;20.03;;
3625;SDS011;1827;50.534;8.316;2023-03-01T06:53:04;68.87;;;20.70;;
3625;SDS011;1827;50.534;8.316;2023-03-01T06:55:33;44.57;;;18.83;;
3625;SDS011;1827;50.534;8.316;2023-03-01T06:58:01;45.43;;;18.80;;
3625;SDS011;1827;50.534;8.316;2023-03-01T07:00:33;47.30;;;19.67;;
3625;SDS011;1827;50.534;8.316;2023-03-01T07:03:00;49.43;;;18.67;;
3625;SDS011;1827;50.534;8.316;2023-03-01T07:05:27;43.23;;;19.20;;
3625;SDS011;1827;50.534;8.316;2023-03-01T07:07:59;45.17;;;19.10;;
3625;SDS011;1827;50.534;8.316;2023-03-01T07:10:25;46.40;;;19.90;;
3625;SDS011;1827;50.534;8.316;2023-03-01T07:12:56;43.03;;;18.77;;
3625;SDS011;1827;50.534;8.316;2023-03-01T07:15:24;48.50;;;19.60;;
3625;SDS011;1827;50.534;8.316;2023-03-01T07:17:54;43.47;;;18.77;;
3625;SDS011;1827;50.534;8.316;2023-03-01T07:20:23;47.00;;;18.70;;
3625;SDS011;1827;50.534;8.316;2023-03-01T07:22:53;42.30;;;18.97;;
3625;SDS011;1827;50.534;8.316;2023-03-01T07:25:24;47.53;;;19.60;;
3625;SDS011;1827;50.534;8.316;2023-03-01T07:27:55;44.60;;;19.33;;
3625;SDS011;1827;50.534;8.316;2023-03-01T07:30:22;68.77;;;30.57;;
3625;SDS011;1827;50.534;8.316;2023-03-01T07:32:53;62.40;;;26.83;;
3625;SDS011;1827;50.534;8.316;2023-03-01T07:35:23;61.33;;;27.33;;
3625;SDS011;1827;50.534;8.316;2023-03-01T07:37:51;56.80;;;25.50;;
3625;SDS011;1827;50.534;8.316;2023-03-01T07:40:22;47.83;;;21.90;;
3625;SDS011;1827;50.534;8.316;2023-03-01T07:42:54;44.67;;;22.17;;
3625;SDS011;1827;50.534;8.316;2023-03-01T07:45:25;49.40;;;19.60;;
3625;SDS011;1827;50.534;8.316;2023-03-01T07:47:53;38.90;;;19.50;;
3625;SDS011;1827;50.534;8.316;2023-03-01T07:50:21;42.27;;;19.17;;
3625;SDS011;1827;50.534;8.316;2023-03-01T07:52:56;39.40;;;18.83;;
3625;SDS011;1827;50.534;8.316;2023-03-01T07:55:25;43.43;;;19.60;;
3625;SDS011;1827;50.534;8.316;2023-03-01T07:57:53;41.20;;;18.93;;
3625;SDS011;1827;50.534;8.316;2023-03-01T08:00:20;40.83;;;17.83;;
3625;SDS011;1827;50.534;8.316;2023-03-01T08:02:46;50.37;;;19.20;;
3625;SDS011;1827;50.534;8.316;2023-03-01T08:05:15;42.90;;;17.43;;
3625;SDS011;1827;50.534;8.316;2023-03-01T08:07:45;41.27;;;18.53;;
3625;SDS011;1827;50.534;8.316;2023-03-01T08:10:13;42.57;;;18.60;;
3625;SDS011;1827;50.534;8.316;2023-03-01T08:12:40;42.90;;;17.80;;
3625;SDS011;1827;50.534;8.316;2023-03-01T08:15:09;45.00;;;18.80;;
3625;SDS011;1827;50.534;8.316;2023-03-01T08:17:38;40.70;;;16.00;;
3625;SDS011;1827;50.534;8.316;2023-03-01T08:20:05;37.93;;;16.97;;
3625;SDS011;1827;50.534;8.316;2023-03-01T08:22:39;41.60;;;16.00;;
3625;SDS011;1827;50.534;8.316;2023-03-01T08:25:07;35.30;;;15.10;;
3625;SDS011;1827;50.534;8.316;2023-03-01T08:27:33;39.33;;;16.13;;
3625;SDS011;1827;50.534;8.316;2023-03-01T08:30:01;37.13;;;15.17;;
3625;SDS011;1827;50.534;8.316;2023-03-01T08:32:26;36.53;;;15.10;;
3625;SDS011;1827;50.534;8.316;2023-03-01T08:34:55;31.13;;;14.20;;
3625;SDS011;1827;50.534;8.316;2023-03-01T08:37:25;37.23;;;16.40;;
3625;SDS011;1827;50.534;8.316;2023-03-01T08:39:51;37.67;;;14.30;;
3625;SDS011;1827;50.534;8.316;2023-03-01T08:42:23;36.83;;;14.60;;
3625;SDS011;1827;50.534;8.316;2023-03-01T08:44:50;35.40;;;15.00;;
3625;SDS011;1827;50.534;8.316;2023-03-01T08:47:16;34.00;;;14.33;;
3625;SDS011;1827;50.534;8.316;2023-03-01T08:49:43;37.00;;;13.97;;
3625;SDS011;1827;50.534;8.316;2023-03-01T08:52:11;30.47;;;13.90;;
3625;SDS011;1827;50.534;8.316;2023-03-01T08:54:37;38.90;;;13.60;;
3625;SDS011;1827;50.534;8.316;2023-03-01T08:57:06;30.40;;;13.30;;
3625;SDS011;1827;50.534;8.316;2023-03-01T08:59:37;32.77;;;14.10;;
3625;SDS011;1827;50.534;8.316;2023-03-01T09:02:04;33.80;;;14.60;;
3625;SDS011;1827;50.534;8.316;2023-03-01T09:04:35;31.47;;;13.00;;
3625;SDS011;1827;50.534;8.316;2023-03-01T09:07:01;31.50;;;14.13;;
3625;SDS011;1827;50.534;8.316;2023-03-01T09:09:26;29.40;;;13.33;;
3625;SDS011;1827;50.534;8.316;2023-03-01T09:11:52;30.83;;;12.33;;
3625;SDS011;1827;50.534;8.316;2023-03-01T09:14:18;31.80;;;14.00;;
3625;SDS011;1827;50.534;8.316;2023-03-01T09:16:43;28.03;;;12.40;;
3625;SDS011;1827;50.534;8.316;2023-03-01T09:19:13;32.77;;;14.43;;
3625;SDS011;1827;50.534;8.316;2023-03-01T09:21:39;32.23;;;13.00;;
3625;SDS011;1827;50.534;8.316;2023-03-01T09:24:05;30.67;;;13.20;;
3625;SDS011;1827;50.534;8.316;2023-03-01T09:26:32;32.93;;;13.80;;
3625;SDS011;1827;50.534;8.316;2023-03-01T09:28:57;28.63;;;12.60;;
3625;SDS011;1827;50.534;8.316;2023-03-01T09:31:26;28.47;;;12.03;;
3625;SDS011;1827;50.534;8.316;2023-03-01T09:33:52;31.60;;;12.77;;
3625;SDS011;1827;50.534;8.316;2023-03-01T09:36:20;28.63;;;13.40;;
3625;SDS011;1827;50.534;8.316;2023-03-01T09:38:51;31.27;;;12.50;;
3625;SDS011;1827;50.534;8.316;2023-03-01T09:41:28;29.60;;;12.50;;
3625;SDS011;1827;50.534;8.316;2023-03-01T09:47:03;30.07;;;13.17;;
3625;SDS011;1827;50.534;8.316;2023-03-01T09:49:30;31.27;;;13.00;;
3625;SDS011;1827;50.534;8.316;2023-03-01T09:54:37;29.53;;;12.27;;
3625;SDS011;1827;50.534;8.316;2023-03-01T09:59:40;27.70;;;11.77;;
3625;SDS011;1827;50.534;8.316;2023-03-01T10:10:34;30.93;;;12.00;;
3625;SDS011;1827;50.534;8.316;2023-03-01T10:13:13;27.67;;;11.73;;
3625;SDS011;1827;50.534;8.316;2023-03-01T10:15:44;30.43;;;12.07;;
3625;SDS011;1827;50.534;8.316;2023-03-01T10:18:20;28.87;;;11.43;;
3625;SDS011;1827;50.534;8.316;2023-03-01T10:20:57;30.80;;;11.70;;
3625;SDS011;1827;50.534;8.316;2023-03-01T10:23:25;31.17;;;11.83;;
3625;SDS011;1827;50.534;8.316;2023-03-01T10:26:03;27.80;;;12.00;;
3625;SDS011;1827;50.534;8.316;2023-03-01T10:31:15;27.20;;;11.40;;
3625;SDS011;1827;50.534;8.316;2023-03-01T10:33:45;27.07;;;11.33;;
3625;SDS011;1827;50.534;8.316;2023-03-01T10:36:13;29.40;;;10.90;;
3625;SDS011;1827;50.534;8.316;2023-03-01T10:39:03;28.73;;;11.13;;
3625;SDS011;1827;50.534;8.316;2023-03-01T10:44:40;29.67;;;11.10;;
3625;SDS011;1827;50.534;8.316;2023-03-01T10:50:03;26.83;;;10.60;;
3625;SDS011;1827;50.534;8.316;2023-03-01T10:52:37;26.87;;;10.50;;
3625;SDS011;1827;50.534;8.316;2023-03-01T10:57:38;29.60;;;12.27;;
3625;SDS011;1827;50.534;8.316;2023-03-01T11:00:17;27.00;;;11.13;;
3625;SDS011;1827;50.534;8.316;2023-03-01T11:02:46;30.60;;;11.43;;
3625;SDS011;1827;50.534;8.316;2023-03-01T11:07:48;30.07;;;11.00;;
3625;SDS011;1827;50.534;8.316;2023-03-01T11:10:25;28.07;;;10.50;;
3625;SDS011;1827;50.534;8.316;2023-03-01T11:13:13;29.47;;;9.97;;
3625;SDS011;1827;50.534;8.316;2023-03-01T11:15:58;26.17;;;10.30;;
3625;SDS011;1827;50.534;8.316;2023-03-01T11:18:26;28.43;;;10.57;;
3625;SDS011;1827;50.534;8.316;2023-03-01T11:20:54;28.00;;;10.70;;
3625;SDS011;1827;50.534;8.316;2023-03-01T11:23:21;26.10;;;10.93;;
3625;SDS011;1827;50.534;8.316;2023-03-01T11:25:49;27.87;;;10.50;;
3625;SDS011;1827;50.534;8.316;2023-03-01T11:28:20;27.90;;;11.27;;
3625;SDS011;1827;50.534;8.316;2023-03-01T11:38:55;28.77;;;10.30;;
3625;SDS011;1827;50.534;8.316;2023-03-01T11:41:28;30.50;;;10.70;;
3625;SDS011;1827;50.534;8.316;2023-03-01T11:47:05;26.77;;;9.70;;
3625;SDS011;1827;50.534;8.316;2023-03-01T11:52:27;31.63;;;11.60;;
3625;SDS011;1827;50.534;8.316;2023-03-01T12:00:35;28.30;;;10.93;;
3625;SDS011;1827;50.534;8.316;2023-03-01T12:08:44;28.83;;;11.23;;
3625;SDS011;1827;50.534;8.316;2023-03-01T12:11:35;27.70;;;10.00;;
3625;SDS011;1827;50.534;8.316;2023-03-01T12:27:57;28.20;;;10.23;;
3625;SDS011;1827;50.534;8.316;2023-03-01T12:30:32;27.03;;;10.50;;
3625;SDS011;1827;50.534;8.316;2023-03-01T12:38:48;28.10;;;10.63;;
3625;SDS011;1827;50.534;8.316;2023-03-01T12:46:52;26.30;;;10.57;;
3625;SDS011;1827;50.534;8.316;2023-03-01T12:49:35;28.80;;;9.90;;
3625;SDS011;1827;50.534;8.316;2023-03-01T12:54:49;33.23;;;14.27;;
3625;SDS011;1827;50.534;8.316;2023-03-01T12:57:26;28.20;;;10.80;;
3625;SDS011;1827;50.534;8.316;2023-03-01T13:05:46;27.87;;;11.00;;
3625;SDS011;1827;50.534;8.316;2023-03-01T13:08:40;27.40;;;11.17;;
3625;SDS011;1827;50.534;8.316;2023-03-01T13:11:17;28.27;;;10.70;;
3625;SDS011;1827;50.534;8.316;2023-03-01T13:14:08;30.80;;;10.83;;
3625;SDS011;1827;50.534;8.316;2023-03-01T13:16:53;27.50;;;10.80;;
3625;SDS011;1827;50.534;8.316;2023-03-01T13:19:24;26.27;;;10.23;;
3625;SDS011;1827;50.534;8.316;2023-03-01T13:21:52;26.33;;;10.57;;
3625;SDS011;1827;50.534;8.316;2023-03-01T13:24:33;40.53;;;10.90;;
3625;SDS011;1827;50.534;8.316;2023-03-01T13:29:45;45.00;;;18.20;;
3625;SDS011;1827;50.534;8.316;2023-03-01T13:34:52;52.17;;;13.17;;
3625;SDS011;1827;50.534;8.316;2023-03-01T13:37:25;28.20;;;11.83;;
3625;SDS011;1827;50.534;8.316;2023-03-01T13:40:04;26.83;;;10.40;;
3625;SDS011;1827;50.534;8.316;2023-03-01T13:42:56;27.70;;;10.57;;
3625;SDS011;1827;50.534;8.316;2023-03-01T13:45:23;37.00;;;14.33;;
3625;SDS011;1827;50.534;8.316;2023-03-01T13:48:24;30.40;;;11.07;;
3625;SDS011;1827;50.534;8.316;2023-03-01T13:51:12;28.50;;;10.63;;
3625;SDS011;1827;50.534;8.316;2023-03-01T13:53:45;29.07;;;10.23;;
3625;SDS011;1827;50.534;8.316;2023-03-01T13:56:16;41.37;;;10.10;;
3625;SDS011;1827;50.534;8.316;2023-03-01T14:03:58;31.30;;;13.90;;
3625;SDS011;1827;50.534;8.316;2023-03-01T14:06:26;26.13;;;10.70;;
3625;SDS011;1827;50.534;8.316;2023-03-01T14:12:39;34.77;;;15.03;;
3625;SDS011;1827;50.534;8.316;2023-03-01T14:17:47;28.73;;;10.77;;
3625;SDS011;1827;50.534;8.316;2023-03-01T14:20:21;28.80;;;11.63;;
3625;SDS011;1827;50.534;8.316;2023-03-01T14:22:52;27.17;;;10.17;;
3625;SDS011;1827;50.534;8.316;2023-03-01T14:27:54;28.43;;;10.80;;
3625;SDS011;1827;50.534;8.316;2023-03-01T14:30:23;31.33;;;11.07;;
3625;SDS011;1827;50.534;8.316;2023-03-01T14:32:52;24.37;;;9.40;;
3625;SDS011;1827;50.534;8.316;2023-03-01T14:35:22;30.83;;;9.97;;
3625;SDS011;1827;50.534;8.316;2023-03-01T14:37:56;30.93;;;12.47;;
3625;SDS011;1827;50.534;8.316;2023-03-01T14:40:32;32.30;;;11.10;;
3625;SDS011;1827;50.534;8.316;2023-03-01T14:43:01;26.90;;;10.17;;
3625;SDS011;1827;50.534;8.316;2023-03-01T14:45:34;28.17;;;9.70;;
3625;SDS011;1827;50.534;8.316;2023-03-01T14:48:00;23.60;;;9.13;;
3625;SDS011;1827;50.534;8.316;2023-03-01T14:50:29;27.30;;;9.17;;
3625;SDS011;1827;50.534;8.316;2023-03-01T14:52:58;23.70;;;8.73;;
3625;SDS011;1827;50.534;8.316;2023-03-01T14:55:31;25.00;;;8.80;;
3625;SDS011;1827;50.534;8.316;2023-03-01T14:58:02;26.10;;;9.60;;
3625;SDS011;1827;50.534;8.316;2023-03-01T15:00:30;28.30;;;9.30;;
3625;SDS011;1827;50.534;8.316;2023-03-01T15:03:00;26.70;;;8.90;;
3625;SDS011;1827;50.534;8.316;2023-03-01T15:05:53;23.23;;;8.47;;
3625;SDS011;1827;50.534;8.316;2023-03-01T15:08:24;27.80;;;9.60;;
3625;SDS011;1827;50.534;8.316;2023-03-01T15:13:31;31.20;;;9.43;;
3625;SDS011;1827;50.534;8.316;2023-03-01T15:18:33;24.87;;;8.63;;
3625;SDS011;1827;50.534;8.316;2023-03-01T15:21:09;24.73;;;9.03;;
3625;SDS011;1827;50.534;8.316;2023-03-01T15:24:17;23.70;;;9.00;;
3625;SDS011;1827;50.534;8.316;2023-03-01T15:27:32;23.90;;;8.47;;
3625;SDS011;1827;50.534;8.316;2023-03-01T15:30:02;26.63;;;8.70;;
3625;SDS011;1827;50.534;8.316;2023-03-01T15:32:36;32.37;;;9.40;;
3625;SDS011;1827;50.534;8.316;2023-03-01T15:41:00;36.17;;;12.20;;
3625;SDS011;1827;50.534;8.316;2023-03-01T15:43:49;44.20;;;15.43;;
3625;SDS011;1827;50.534;8.316;2023-03-01T15:46:28;48.50;;;17.37;;
3625;SDS011;1827;50.534;8.316;2023-03-01T15:49:03;37.00;;;13.40;;
3625;SDS011;1827;50.534;8.316;2023-03-01T15:51:44;42.30;;;12.00;;
3625;SDS011;1827;50.534;8.316;2023-03-01T15:54:18;37.07;;;13.13;;
3625;SDS011;1827;50.534;8.316;2023-03-01T15:56:49;30.87;;;11.10;;
3625;SDS011;1827;50.534;8.316;2023-03-01T15:59:17;43.20;;;16.10;;
3625;SDS011;1827;50.534;8.316;2023-03-01T16:01:48;23.83;;;8.13;;
3625;SDS011;1827;50.534;8.316;2023-03-01T16:04:19;29.57;;;10.90;;
3625;SDS011;1827;50.534;8.316;2023-03-01T16:06:51;27.37;;;8.73;;
3625;SDS011;1827;50.534;8.316;2023-03-01T16:09:23;28.63;;;9.27;;
3625;SDS011;1827;50.534;8.316;2023-03-01T16:11:52;27.77;;;9.97;;
3625;SDS011;1827;50.534;8.316;2023-03-01T16:14:21;28.67;;;9.47;;
3625;SDS011;1827;50.534;8.316;2023-03-01T16:16:48;27.63;;;8.77;;
3625;SDS011;1827;50.534;8.316;2023-03-01T16:19:15;25.67;;;9.93;;
3625;SDS011;1827;50.534;8.316;2023-03-01T16:21:44;26.63;;;9.50;;
3625;SDS011;1827;50.534;8.316;2023-03-01T16:24:20;25.83;;;9.70;;
3625;SDS011;1827;50.534;8.316;2023-03-01T16:26:54;31.43;;;11.10;;
3625;SDS011;1827;50.534;8.316;2023-03-01T16:29:24;25.60;;;8.90;;
3625;SDS011;1827;50.534;8.316;2023-03-01T16:31:55;29.53;;;11.30;;
3625;SDS011;1827;50.534;8.316;2023-03-01T16:34:24;35.77;;;11.37;;
3625;SDS011;1827;50.534;8.316;2023-03-01T16:36:50;33.53;;;10.37;;
3625;SDS011;1827;50.534;8.316;2023-03-01T16:39:16;22.67;;;8.33;;
3625;SDS011;1827;50.534;8.316;2023-03-01T16:41:42;28.53;;;9.20;;
3625;SDS011;1827;50.534;8.316;2023-03-01T16:44:09;30.90;;;10.00;;
3625;SDS011;1827;50.534;8.316;2023-03-01T16:46:37;24.77;;;8.87;;
3625;SDS011;1827;50.534;8.316;2023-03-01T16:49:08;32.93;;;12.40;;
3625;SDS011;1827;50.534;8.316;2023-03-01T16:51:34;34.03;;;11.63;;
3625;SDS011;1827;50.534;8.316;2023-03-01T16:54:03;27.20;;;9.80;;
3625;SDS011;1827;50.534;8.316;2023-03-01T16:56:32;26.93;;;10.10;;
3625;SDS011;1827;50.534;8.316;2023-03-01T16:59:01;29.50;;;9.83;;
3625;SDS011;1827;50.534;8.316;2023-03-01T17:01:28;33.07;;;9.93;;
3625;SDS011;1827;50.534;8.316;2023-03-01T17:04:03;33.60;;;13.40;;
3625;SDS011;1827;50.534;8.316;2023-03-01T17:06:30;38.13;;;10.33;;
3625;SDS011;1827;50.534;8.316;2023-03-01T17:08:58;61.03;;;20.93;;
3625;SDS011;1827;50.534;8.316;2023-03-01T17:11:25;45.90;;;16.77;;
3625;SDS011;1827;50.534;8.316;2023-03-01T17:13:51;28.73;;;9.70;;
3625;SDS011;1827;50.534;8.316;2023-03-01T17:16:18;35.07;;;12.87;;
3625;SDS011;1827;50.534;8.316;2023-03-01T17:18:47;45.30;;;12.57;;
3625;SDS011;1827;50.534;8.316;2023-03-01T17:21:14;31.80;;;12.23;;
3625;SDS011;1827;50.534;8.316;2023-03-01T17:23:42;30.80;;;10.97;;